Time;durP1;ratioP1;P1;durP2;ratioP2;P2;SDS_P1;SDS_P2;PMS_P1;PMS_P2;Temp;Humidity;BMP_temperature;BMP_pressure;BME280_temperature;BME280_humidity;BME280_pressure;Samples;Min_cycle;Max_cycle;Signal;HPM_P1;HPM_P2
2023/06/29 00:01:10;;;;;;;5.40;3.63;;;29.30;45.80;;;;;;4988703;28;87574;-52
2023/06/29 00:03:41;;;;;;;6.37;3.13;;;29.30;45.80;;;;;;4981156;28;87638;-52
2023/06/29 00:06:10;;;;;;;3.73;2.40;;;29.30;45.80;;;;;;4985370;28;88537;-52
2023/06/29 00:08:38;;;;;;;4.90;2.83;;;29.30;45.80;;;;;;4996200;28;90113;-53
2023/06/29 00:11:07;;;;;;;5.20;3.63;;;29.30;45.80;;;;;;5000249;28;88851;-53
2023/06/29 00:13:35;;;;;;;4.47;2.93;;;29.30;45.80;;;;;;5000875;28;87755;-52
2023/06/29 00:16:04;;;;;;;7.60;3.03;;;29.30;45.80;;;;;;4991688;28;88847;-52
2023/06/29 00:18:32;;;;;;;6.37;3.60;;;29.30;45.80;;;;;;4981234;28;88239;-52
2023/06/29 00:21:03;;;;;;;3.30;2.60;;;29.30;45.80;;;;;;4980957;28;87623;-53
2023/06/29 00:23:34;;;;;;;4.07;2.80;;;29.30;45.80;;;;;;4995079;28;87660;-52
2023/06/29 00:26:03;;;;;;;3.67;2.43;;;29.30;45.80;;;;;;4995378;28;89647;-53
2023/06/29 00:28:31;;;;;;;6.60;3.17;;;29.30;45.80;;;;;;5000757;28;88100;-52
2023/06/29 00:30:59;;;;;;;4.47;2.50;;;29.30;45.80;;;;;;4993178;28;87534;-53
2023/06/29 00:33:28;;;;;;;6.30;2.73;;;29.30;46.50;;;;;;4980456;28;88043;-52
2023/06/29 00:35:56;;;;;;;4.13;2.87;;;29.30;45.80;;;;;;4980889;28;88805;-53
2023/06/29 00:38:25;;;;;;;4.67;2.70;;;29.30;45.90;;;;;;4991162;28;89248;-53
2023/06/29 00:40:53;;;;;;;4.40;2.30;;;29.30;45.90;;;;;;4994247;28;87853;-52
2023/06/29 00:43:21;;;;;;;6.50;2.73;;;29.20;46.50;;;;;;4996894;28;87666;-53
2023/06/29 00:45:49;;;;;;;6.37;2.80;;;29.30;45.90;;;;;;4989778;28;87367;-54
2023/06/29 00:48:17;;;;;;;4.80;3.07;;;29.20;45.80;;;;;;4980887;28;89253;-53
2023/06/29 00:50:46;;;;;;;6.13;2.97;;;29.20;45.90;;;;;;4983913;28;87900;-53
2023/06/29 00:53:14;;;;;;;7.10;3.40;;;29.20;45.80;;;;;;4999984;28;87808;-53
2023/06/29 00:55:44;;;;;;;4.87;3.30;;;29.30;46.00;;;;;;5000200;28;88589;-53
2023/06/29 00:58:12;;;;;;;4.40;2.73;;;29.30;45.90;;;;;;4999752;28;89106;-52
2023/06/29 01:00:41;;;;;;;4.47;2.87;;;29.30;45.90;;;;;;4981653;28;88710;-53
2023/06/29 01:03:09;;;;;;;8.57;2.63;;;29.30;45.90;;;;;;4999154;28;87716;-52
2023/06/29 01:05:37;;;;;;;3.03;2.17;;;29.30;45.90;;;;;;4999738;28;88580;-53
2023/06/29 01:08:08;;;;;;;4.63;2.50;;;29.30;45.80;;;;;;4994890;28;88172;-53
2023/06/29 01:10:36;;;;;;;4.13;2.60;;;29.30;45.80;;;;;;4980716;28;87908;-52
2023/06/29 01:13:06;;;;;;;5.87;3.30;;;29.30;45.80;;;;;;4980346;28;87756;-53
2023/06/29 01:15:34;;;;;;;4.27;2.50;;;29.30;45.90;;;;;;4980655;28;87587;-52
2023/06/29 01:18:03;;;;;;;3.10;2.10;;;29.20;45.80;;;;;;4980244;28;89203;-52
2023/06/29 01:20:32;;;;;;;4.50;2.40;;;29.30;45.90;;;;;;4980538;28;87749;-52
2023/06/29 01:23:01;;;;;;;3.57;2.70;;;29.30;45.90;;;;;;4997516;28;87865;-52
2023/06/29 01:25:30;;;;;;;3.60;2.37;;;29.30;45.90;;;;;;4999928;28;88474;-52
2023/06/29 01:27:58;;;;;;;3.77;2.60;;;29.20;45.80;;;;;;4982295;28;88280;-52
2023/06/29 01:30:28;;;;;;;4.17;2.13;;;29.20;45.80;;;;;;4980391;28;88856;-53
2023/06/29 01:32:56;;;;;;;4.13;2.50;;;29.20;45.80;;;;;;4985546;28;87648;-52
2023/06/29 01:35:24;;;;;;;3.67;2.60;;;29.20;46.50;;;;;;4999606;28;87524;-52
2023/06/29 01:37:54;;;;;;;5.87;3.23;;;29.20;45.80;;;;;;4985405;28;88895;-52
2023/06/29 01:40:24;;;;;;;4.57;2.93;;;29.20;45.80;;;;;;4998375;28;87932;-53
2023/06/29 01:42:54;;;;;;;5.37;2.70;;;29.20;46.50;;;;;;4999885;28;87547;-52
2023/06/29 01:45:22;;;;;;;3.63;2.50;;;29.20;45.90;;;;;;4999845;28;88619;-52
2023/06/29 01:47:50;;;;;;;4.83;2.60;;;29.20;46.50;;;;;;4986306;28;90076;-52
2023/06/29 01:50:18;;;;;;;4.90;2.23;;;29.20;45.90;;;;;;4980673;28;88707;-52
2023/06/29 01:52:46;;;;;;;5.90;2.50;;;29.20;45.90;;;;;;4992417;28;87325;-52
2023/06/29 01:55:14;;;;;;;5.97;3.10;;;29.20;45.90;;;;;;5002421;28;87658;-53
2023/06/29 01:57:42;;;;;;;6.40;2.80;;;29.10;45.90;;;;;;5002612;28;88473;-52
2023/06/29 02:00:14;;;;;;;3.73;2.70;;;29.10;45.90;;;;;;5003340;28;87388;-52
2023/06/29 02:02:42;;;;;;;5.20;2.83;;;29.10;46.00;;;;;;5003451;28;87403;-52
2023/06/29 02:05:10;;;;;;;5.53;2.37;;;29.10;45.90;;;;;;5002686;28;88503;-52
2023/06/29 02:07:38;;;;;;;6.30;2.57;;;29.10;45.90;;;;;;5003036;28;88213;-52
2023/06/29 02:10:08;;;;;;;5.23;2.70;;;29.10;45.90;;;;;;4990144;28;87461;-53
2023/06/29 02:12:39;;;;;;;3.80;2.37;;;29.10;45.90;;;;;;4982914;28;87876;-52
2023/06/29 02:15:08;;;;;;;3.90;2.47;;;29.10;45.90;;;;;;4982953;28;88701;-53
2023/06/29 02:17:37;;;;;;;6.63;2.83;;;29.10;45.90;;;;;;4982683;28;87896;-52
2023/06/29 02:20:09;;;;;;;4.53;2.77;;;29.10;45.90;;;;;;4983107;28;87730;-52
2023/06/29 02:22:37;;;;;;;5.30;2.57;;;29.10;45.90;;;;;;4982970;28;87553;-53
2023/06/29 02:25:06;;;;;;;5.20;3.03;;;29.10;46.00;;;;;;4992572;28;88598;-52
2023/06/29 02:27:36;;;;;;;7.13;2.97;;;29.10;46.00;;;;;;5002345;28;88077;-53
2023/06/29 02:30:04;;;;;;;5.17;2.53;;;29.10;45.90;;;;;;5002825;28;87767;-53
2023/06/29 02:32:32;;;;;;;5.87;3.17;;;29.10;45.90;;;;;;4997995;28;87231;-52
2023/06/29 02:35:02;;;;;;;3.80;2.80;;;29.10;45.90;;;;;;4982688;28;88406;-53
2023/06/29 02:37:30;;;;;;;4.93;2.77;;;29.10;46.00;;;;;;4988292;28;89201;-53
2023/06/29 02:39:59;;;;;;;4.57;2.80;;;29.10;46.00;;;;;;4994619;28;88789;-52
2023/06/29 02:42:27;;;;;;;4.27;3.03;;;29.10;46.00;;;;;;4986775;28;87634;-52
2023/06/29 02:44:55;;;;;;;4.80;2.87;;;29.10;46.00;;;;;;5002714;28;87424;-52
2023/06/29 02:47:23;;;;;;;4.80;3.33;;;29.10;46.00;;;;;;5002175;28;89025;-52
2023/06/29 02:49:51;;;;;;;5.40;3.70;;;29.10;46.70;;;;;;5002556;28;88982;-52
2023/06/29 02:52:20;;;;;;;5.13;3.33;;;29.20;46.00;;;;;;5002455;28;87715;-52
2023/06/29 02:54:49;;;;;;;4.97;3.23;;;29.10;46.00;;;;;;4997986;28;87596;-53
2023/06/29 02:57:17;;;;;;;6.67;3.73;;;29.10;46.00;;;;;;4983217;28;89106;-52
2023/06/29 02:59:45;;;;;;;4.77;3.20;;;29.10;46.00;;;;;;5002338;28;88968;-53
2023/06/29 03:02:13;;;;;;;6.20;3.93;;;29.10;46.00;;;;;;5001573;28;87845;-53
2023/06/29 03:04:43;;;;;;;10.90;4.37;;;29.10;46.00;;;;;;5001399;28;87998;-53
2023/06/29 03:07:11;;;;;;;7.30;4.23;;;29.10;46.00;;;;;;5001728;28;88285;-52
2023/06/29 03:09:40;;;;;;;7.80;4.47;;;29.10;46.00;;;;;;4982205;28;87752;-53
2023/06/29 03:12:10;;;;;;;5.20;3.10;;;29.10;46.00;;;;;;5002297;28;87325;-52
2023/06/29 03:14:38;;;;;;;7.00;4.20;;;29.10;46.00;;;;;;5001928;28;87409;-53
2023/06/29 03:17:08;;;;;;;4.63;3.50;;;29.10;46.00;;;;;;5001522;28;88061;-52
2023/06/29 03:19:36;;;;;;;5.60;3.67;;;29.10;46.70;;;;;;5001749;28;88011;-53
2023/06/29 03:22:04;;;;;;;6.03;3.63;;;29.10;46.00;;;;;;5001993;28;87621;-53
2023/06/29 03:24:32;;;;;;;7.90;4.10;;;29.10;46.10;;;;;;5001716;28;89619;-52
2023/06/29 03:27:02;;;;;;;5.43;3.70;;;29.10;46.00;;;;;;4983293;28;89147;-52
2023/06/29 03:29:30;;;;;;;10.53;3.97;;;29.10;46.10;;;;;;4981845;28;90018;-52
2023/06/29 03:31:59;;;;;;;6.27;3.80;;;29.10;46.00;;;;;;4982300;28;87554;-53
2023/06/29 03:34:27;;;;;;;10.63;4.13;;;29.00;46.00;;;;;;4996332;28;88613;-52
2023/06/29 03:36:55;;;;;;;6.50;4.23;;;29.00;46.00;;;;;;5001183;28;88308;-52
2023/06/29 03:39:23;;;;;;;6.67;3.93;;;29.00;46.60;;;;;;5001518;28;88690;-53
2023/06/29 03:41:51;;;;;;;4.40;3.27;;;29.10;46.00;;;;;;4987178;28;87752;-52
2023/06/29 03:44:21;;;;;;;7.20;4.40;;;29.00;46.00;;;;;;4981567;28;88656;-52
2023/06/29 03:46:49;;;;;;;6.17;4.30;;;29.00;46.00;;;;;;4981839;28;88152;-52
2023/06/29 03:49:17;;;;;;;5.90;3.67;;;29.00;46.00;;;;;;4993541;28;88304;-53
2023/06/29 03:51:45;;;;;;;7.07;4.83;;;29.00;46.00;;;;;;5000993;28;87818;-53
2023/06/29 03:54:13;;;;;;;6.40;3.67;;;29.00;46.00;;;;;;5000583;28;88522;-52
2023/06/29 03:56:41;;;;;;;6.07;4.07;;;29.00;46.00;;;;;;4990028;28;87442;-52
2023/06/29 03:59:09;;;;;;;10.37;4.07;;;29.00;46.00;;;;;;4991540;28;87293;-53
2023/06/29 04:01:38;;;;;;;6.83;4.50;;;29.00;46.00;;;;;;5001402;28;87160;-52
2023/06/29 04:04:06;;;;;;;6.17;3.90;;;29.00;46.00;;;;;;5000584;28;88418;-52
2023/06/29 04:06:34;;;;;;;6.67;3.80;;;29.00;46.00;;;;;;5001040;28;89099;-52
2023/06/29 04:09:02;;;;;;;7.63;4.20;;;29.00;46.00;;;;;;5001062;28;87833;-52
2023/06/29 04:11:31;;;;;;;6.33;3.83;;;29.00;46.00;;;;;;4986667;28;87638;-53
2023/06/29 04:13:59;;;;;;;6.47;4.23;;;29.00;46.00;;;;;;4980924;28;88610;-52
2023/06/29 04:16:27;;;;;;;7.50;4.40;;;29.00;46.00;;;;;;4979852;28;88881;-53
2023/06/29 04:18:56;;;;;;;6.47;4.00;;;29.00;46.00;;;;;;4981359;28;88689;-52
2023/06/29 04:21:24;;;;;;;6.30;4.00;;;29.10;46.00;;;;;;4981074;28;87713;-52
2023/06/29 04:23:52;;;;;;;6.37;4.00;;;29.00;46.00;;;;;;4983392;28;89754;-52
2023/06/29 04:26:22;;;;;;;6.63;3.53;;;29.10;46.10;;;;;;5000973;28;89327;-52
2023/06/29 04:28:50;;;;;;;6.57;3.77;;;29.10;46.10;;;;;;5000795;28;89011;-52
2023/06/29 04:31:18;;;;;;;6.30;3.97;;;29.00;46.00;;;;;;5001174;28;87628;-52
2023/06/29 04:33:46;;;;;;;6.33;3.77;;;29.00;46.00;;;;;;4999572;28;88418;-53
2023/06/29 04:36:17;;;;;;;8.07;4.10;;;29.00;46.00;;;;;;5000297;28;89077;-53
2023/06/29 04:38:45;;;;;;;5.43;3.57;;;29.00;46.00;;;;;;5000561;28;88695;-53
2023/06/29 04:41:14;;;;;;;7.93;4.03;;;29.10;46.70;;;;;;4980651;28;87909;-53
2023/06/29 04:43:42;;;;;;;6.70;3.73;;;29.00;46.00;;;;;;4980544;28;88569;-53
2023/06/29 04:46:10;;;;;;;6.23;3.67;;;29.10;46.00;;;;;;4980810;28;88200;-53
2023/06/29 04:48:38;;;;;;;4.67;3.40;;;29.00;46.00;;;;;;4980805;28;87731;-52
2023/06/29 04:51:06;;;;;;;8.03;3.63;;;29.00;46.00;;;;;;4981036;28;87547;-52
2023/06/29 04:53:36;;;;;;;6.30;3.97;;;29.00;46.00;;;;;;4980859;28;89680;-52
2023/06/29 04:56:05;;;;;;;7.20;3.30;;;29.00;46.00;;;;;;4988304;28;87487;-52
2023/06/29 04:58:33;;;;;;;3.50;3.13;;;29.00;45.90;;;;;;4992843;28;87854;-52
2023/06/29 05:01:01;;;;;;;6.53;3.40;;;29.00;46.60;;;;;;4993006;28;87368;-52
2023/06/29 05:03:29;;;;;;;3.97;3.10;;;29.00;45.90;;;;;;4982924;28;89721;-52
2023/06/29 05:05:57;;;;;;;8.07;3.60;;;29.10;46.60;;;;;;4978124;28;87824;-52
2023/06/29 05:08:25;;;;;;;6.73;4.13;;;29.00;45.90;;;;;;4980386;28;88862;-53
2023/06/29 05:10:54;;;;;;;7.17;4.10;;;29.00;45.90;;;;;;4982145;28;87715;-53
2023/06/29 05:13:22;;;;;;;5.90;3.33;;;29.00;45.90;;;;;;4980532;28;88741;-52
2023/06/29 05:15:50;;;;;;;5.47;3.10;;;29.00;45.90;;;;;;4980331;28;89349;-52
2023/06/29 05:18:18;;;;;;;5.23;3.63;;;29.00;45.90;;;;;;4991392;28;87798;-53
2023/06/29 05:20:47;;;;;;;4.07;2.90;;;29.00;46.60;;;;;;4994755;28;87643;-52
2023/06/29 05:23:15;;;;;;;6.50;3.40;;;29.00;45.90;;;;;;4990048;28;88722;-53
2023/06/29 05:25:43;;;;;;;5.07;2.83;;;29.00;45.90;;;;;;4983474;28;89339;-52
2023/06/29 05:28:13;;;;;;;4.20;3.07;;;29.00;45.90;;;;;;4986508;28;88777;-53
2023/06/29 05:30:41;;;;;;;5.87;3.23;;;29.00;45.90;;;;;;4996510;28;87801;-52
2023/06/29 05:33:09;;;;;;;5.97;4.03;;;29.00;45.90;;;;;;4992623;28;88548;-52
2023/06/29 05:35:37;;;;;;;5.57;2.97;;;29.00;45.90;;;;;;4985333;28;88322;-52
2023/06/29 05:38:05;;;;;;;5.03;3.10;;;29.00;45.90;;;;;;4991841;28;88892;-52
2023/06/29 05:40:33;;;;;;;8.37;3.97;;;29.00;45.90;;;;;;4986148;28;87464;-53
2023/06/29 05:43:02;;;;;;;4.70;3.33;;;29.00;45.90;;;;;;4992125;28;89760;-53
2023/06/29 05:45:31;;;;;;;6.70;3.43;;;29.00;45.90;;;;;;4988826;28;88115;-52
2023/06/29 05:47:59;;;;;;;4.83;3.17;;;29.00;45.90;;;;;;4998725;28;87800;-53
2023/06/29 05:50:27;;;;;;;4.70;2.97;;;29.00;46.60;;;;;;4989500;28;88758;-52
2023/06/29 05:52:55;;;;;;;4.97;3.40;;;29.00;45.90;;;;;;4993804;28;88616;-53
2023/06/29 05:55:24;;;;;;;4.27;3.50;;;29.00;46.60;;;;;;4992096;28;89282;-53
2023/06/29 05:57:52;;;;;;;5.17;2.93;;;29.00;45.90;;;;;;4988663;28;88861;-52
2023/06/29 06:00:20;;;;;;;5.13;3.33;;;29.00;45.90;;;;;;5000251;28;87646;-52
2023/06/29 06:02:50;;;;;;;5.73;3.40;;;29.00;45.90;;;;;;4990018;28;89551;-52
2023/06/29 06:05:18;;;;;;;4.63;3.60;;;29.00;45.90;;;;;;5002354;28;87414;-53
2023/06/29 06:07:46;;;;;;;7.73;4.40;;;29.00;45.90;;;;;;4994013;28;87946;-53
2023/06/29 06:10:14;;;;;;;5.17;3.87;;;29.00;46.00;;;;;;4982268;28;87635;-51
2023/06/29 06:12:42;;;;;;;4.93;2.93;;;29.00;46.00;;;;;;4991854;28;90008;-51
2023/06/29 06:15:13;;;;;;;5.17;3.50;;;29.10;46.10;;;;;;4992470;28;88104;-51
2023/06/29 06:17:41;;;;;;;5.90;3.20;;;29.10;46.10;;;;;;5002724;28;88890;-53
2023/06/29 06:20:12;;;;;;;6.33;3.43;;;29.10;46.10;;;;;;4997301;28;87977;-51
2023/06/29 06:22:40;;;;;;;6.80;2.83;;;29.10;46.20;;;;;;5002943;28;89890;-51
2023/06/29 06:25:09;;;;;;;5.70;3.43;;;29.10;46.20;;;;;;5002556;28;87373;-51
2023/06/29 06:27:37;;;;;;;4.80;3.17;;;29.20;46.20;;;;;;4995365;28;87812;-51
2023/06/29 06:30:07;;;;;;;5.43;3.10;;;29.10;46.20;;;;;;4982885;28;87742;-51
2023/06/29 06:32:38;;;;;;;7.07;3.00;;;29.10;46.30;;;;;;4982682;28;88408;-51
2023/06/29 06:35:08;;;;;;;6.30;3.43;;;29.20;46.30;;;;;;4997629;28;89211;-51
2023/06/29 06:37:38;;;;;;;5.40;3.77;;;29.20;46.30;;;;;;5002142;28;87755;-51
2023/06/29 06:40:08;;;;;;;5.87;3.20;;;29.20;46.30;;;;;;5000121;28;87679;-51
2023/06/29 06:42:36;;;;;;;7.10;3.40;;;29.20;46.30;;;;;;4982667;28;89734;-53
2023/06/29 06:45:05;;;;;;;7.80;3.43;;;29.20;46.30;;;;;;4986379;28;88981;-51
2023/06/29 06:47:33;;;;;;;7.00;3.47;;;29.20;46.30;;;;;;4982465;28;88742;-51
2023/06/29 06:50:01;;;;;;;4.10;2.47;;;29.20;46.40;;;;;;4983441;28;87718;-51
2023/06/29 06:52:29;;;;;;;6.13;3.83;;;29.40;46.50;;;;;;4982172;28;89720;-51
2023/06/29 06:54:59;;;;;;;6.10;3.03;;;29.30;46.40;;;;;;4981930;28;88166;-51
2023/06/29 06:57:27;;;;;;;6.67;3.20;;;29.30;46.40;;;;;;4997034;28;87657;-51
2023/06/29 06:59:55;;;;;;;4.80;3.00;;;29.30;46.40;;;;;;4998726;28;87815;-51
2023/06/29 07:02:23;;;;;;;5.70;3.60;;;29.30;46.40;;;;;;4996104;28;89817;-51
2023/06/29 07:04:52;;;;;;;7.40;4.20;;;29.30;46.40;;;;;;4994578;28;88117;-51
2023/06/29 07:07:20;;;;;;;8.83;3.57;;;29.30;46.50;;;;;;5001652;28;88836;-51
2023/06/29 07:09:48;;;;;;;5.47;3.30;;;29.30;46.40;;;;;;4982105;28;87896;-51
2023/06/29 07:12:18;;;;;;;7.13;3.70;;;29.30;46.40;;;;;;4982209;28;88461;-51
2023/06/29 07:14:46;;;;;;;8.03;4.10;;;29.30;46.50;;;;;;4981928;28;88125;-51
2023/06/29 07:17:15;;;;;;;6.63;3.57;;;29.40;46.50;;;;;;4982122;28;88781;-51
2023/06/29 07:19:43;;;;;;;6.10;3.73;;;29.40;46.40;;;;;;4984297;28;87642;-51
2023/06/29 07:22:14;;;;;;;9.00;4.40;;;29.40;46.40;;;;;;4999891;28;88234;-51
2023/06/29 07:24:45;;;;;;;7.67;3.47;;;29.40;46.40;;;;;;4995570;28;87914;-52
2023/06/29 07:27:13;;;;;;;8.80;4.20;;;29.40;46.40;;;;;;4987492;28;89230;-51
2023/06/29 07:29:42;;;;;;;9.07;3.90;;;29.40;46.40;;;;;;4981925;28;87637;-52
2023/06/29 07:32:10;;;;;;;7.33;3.57;;;29.40;46.40;;;;;;4988441;28;89985;-52
2023/06/29 07:34:38;;;;;;;6.57;3.40;;;29.40;46.40;;;;;;4999786;28;90182;-52
2023/06/29 07:37:07;;;;;;;5.33;3.37;;;29.40;46.40;;;;;;4991551;28;88810;-51
2023/06/29 07:39:35;;;;;;;5.27;3.37;;;29.40;46.40;;;;;;5001292;28;87501;-52
2023/06/29 07:42:03;;;;;;;9.40;3.90;;;29.40;46.40;;;;;;4989515;28;88658;-52
2023/06/29 07:44:31;;;;;;;10.33;3.57;;;29.40;46.40;;;;;;4991891;28;88238;-52
2023/06/29 07:47:01;;;;;;;8.00;3.67;;;29.40;46.40;;;;;;4986916;28;87557;-51
2023/06/29 07:49:29;;;;;;;5.63;3.73;;;29.40;46.50;;;;;;4990710;28;87610;-51
2023/06/29 07:51:58;;;;;;;9.00;4.53;;;29.50;46.50;;;;;;4997561;28;88624;-52
2023/06/29 07:54:27;;;;;;;7.13;3.50;;;29.40;46.50;;;;;;4983791;28;88135;-54
2023/06/29 07:56:55;;;;;;;5.00;3.60;;;29.40;46.50;;;;;;4987868;28;87269;-53
2023/06/29 07:59:26;;;;;;;6.40;4.10;;;29.50;46.60;;;;;;4988353;28;87923;-53
2023/06/29 08:01:54;;;;;;;8.83;4.13;;;29.40;46.60;;;;;;4996856;28;89665;-52
2023/06/29 08:04:23;;;;;;;8.40;3.73;;;29.50;46.70;;;;;;4987885;28;88033;-52
2023/06/29 08:06:54;;;;;;;7.63;3.90;;;29.50;46.80;;;;;;4988070;28;88390;-52
2023/06/29 08:09:22;;;;;;;5.70;3.83;;;29.50;46.80;;;;;;4988727;28;88851;-52
2023/06/29 08:11:50;;;;;;;9.87;4.40;;;29.50;46.90;;;;;;4995469;28;88780;-52
2023/06/29 08:14:18;;;;;;;6.30;3.73;;;29.40;46.80;;;;;;4984499;28;88147;-51
2023/06/29 08:16:47;;;;;;;7.23;3.57;;;29.50;46.90;;;;;;4993598;28;89394;-51
2023/06/29 08:19:15;;;;;;;7.70;4.23;;;29.50;46.90;;;;;;4981356;28;87591;-52
2023/06/29 08:21:47;;;;;;;6.83;3.83;;;29.50;46.90;;;;;;4986442;28;88172;-52
2023/06/29 08:24:15;;;;;;;5.23;3.30;;;29.50;46.90;;;;;;4996110;28;88812;-51
2023/06/29 08:26:44;;;;;;;5.57;3.40;;;29.50;46.90;;;;;;4997407;28;89772;-51
2023/06/29 08:29:12;;;;;;;14.73;4.00;;;29.50;46.90;;;;;;4987691;28;87489;-52
2023/06/29 08:31:41;;;;;;;6.47;3.70;;;29.50;47.00;;;;;;4995685;28;88485;-52
2023/06/29 08:34:09;;;;;;;7.20;3.90;;;29.50;47.00;;;;;;4981904;28;88031;-51
2023/06/29 08:36:37;;;;;;;9.03;4.10;;;29.50;47.00;;;;;;4980438;28;87756;-52
2023/06/29 08:39:08;;;;;;;9.80;3.87;;;29.50;47.00;;;;;;4980983;28;87654;-52
2023/06/29 08:41:36;;;;;;;6.53;3.80;;;29.50;47.00;;;;;;4998928;28;88575;-52
2023/06/29 08:44:06;;;;;;;7.50;4.00;;;29.50;47.00;;;;;;4999512;28;87896;-52
2023/06/29 08:46:34;;;;;;;5.70;4.03;;;29.50;47.00;;;;;;4998414;28;87815;-51
2023/06/29 08:49:02;;;;;;;9.37;4.90;;;29.60;47.10;;;;;;4989568;28;87811;-51
2023/06/29 08:51:32;;;;;;;9.70;4.30;;;29.60;47.10;;;;;;4998878;28;88759;-53
2023/06/29 08:54:00;;;;;;;9.63;4.27;;;29.60;47.10;;;;;;4988260;28;88050;-51
2023/06/29 08:56:30;;;;;;;9.47;4.93;;;29.60;47.10;;;;;;4980441;28;88042;-51
2023/06/29 08:58:58;;;;;;;9.40;4.43;;;29.60;47.20;;;;;;4988326;28;87701;-51
2023/06/29 09:01:26;;;;;;;8.97;4.23;;;29.60;47.20;;;;;;4984075;28;89698;-51
2023/06/29 09:03:54;;;;;;;11.73;4.87;;;29.70;47.30;;;;;;4980258;28;87519;-50
2023/06/29 09:06:23;;;;;;;5.87;4.13;;;29.60;47.30;;;;;;4984903;28;89042;-51
2023/06/29 09:08:55;;;;;;;8.20;4.20;;;29.60;47.40;;;;;;4999883;28;87572;-51
2023/06/29 09:11:24;;;;;;;8.80;4.40;;;29.60;47.40;;;;;;4998940;28;88485;-51
2023/06/29 09:13:53;;;;;;;12.37;4.73;;;29.60;47.40;;;;;;4984692;28;90192;-51
2023/06/29 09:16:21;;;;;;;8.23;4.03;;;29.60;47.40;;;;;;4990204;28;89914;-51
2023/06/29 09:18:54;;;;;;;10.77;4.87;;;29.60;47.40;;;;;;4993694;28;87645;-51
2023/06/29 09:21:23;;;;;;;11.43;4.63;;;29.60;48.00;;;;;;4981405;28;88583;-52
2023/06/29 09:23:51;;;;;;;9.00;4.20;;;29.70;47.40;;;;;;4980055;28;88124;-51
2023/06/29 09:26:19;;;;;;;9.80;5.20;;;29.70;47.40;;;;;;4979786;28;87998;-51
2023/06/29 09:28:47;;;;;;;7.17;4.17;;;29.70;47.40;;;;;;4981197;28;87646;-51
2023/06/29 09:31:17;;;;;;;8.83;4.57;;;29.70;47.40;;;;;;4984033;28;89919;-51
2023/06/29 09:33:45;;;;;;;10.03;4.00;;;29.70;48.10;;;;;;4987061;28;87961;-51
2023/06/29 09:36:13;;;;;;;6.17;3.93;;;29.70;47.40;;;;;;4980030;28;89055;-51
2023/06/29 09:38:41;;;;;;;9.70;4.40;;;29.70;47.50;;;;;;4979552;28;87818;-51
2023/06/29 09:41:09;;;;;;;14.57;3.90;;;29.70;47.40;;;;;;4994375;28;87571;-51
2023/06/29 09:43:40;;;;;;;7.40;4.60;;;29.70;47.40;;;;;;4996100;28;87981;-51
2023/06/29 09:46:08;;;;;;;6.67;3.97;;;29.70;47.40;;;;;;4984777;28;87959;-51
2023/06/29 09:48:46;;;;;;;6.50;3.90;;;29.70;47.40;;;;;;4980060;28;87348;-51
2023/06/29 09:51:20;;;;;;;9.03;4.13;;;29.70;47.40;;;;;;4979531;28;89029;-51
2023/06/29 09:53:49;;;;;;;5.70;3.27;;;29.80;47.50;;;;;;4999337;28;87659;-51
2023/06/29 09:56:17;;;;;;;8.77;4.10;;;29.70;47.40;;;;;;4999981;28;87751;-51
2023/06/29 09:58:45;;;;;;;10.87;3.63;;;29.80;47.50;;;;;;5000047;28;87690;-51
2023/06/29 10:01:15;;;;;;;7.30;3.73;;;29.70;47.40;;;;;;4999949;28;88571;-50
2023/06/29 10:03:45;;;;;;;8.80;4.33;;;29.80;47.40;;;;;;4999344;28;90012;-50
2023/06/29 10:06:16;;;;;;;7.67;3.53;;;29.80;47.40;;;;;;4998856;28;88651;-51
2023/06/29 10:08:44;;;;;;;6.23;3.77;;;29.80;47.40;;;;;;4999816;28;87457;-50
2023/06/29 10:11:12;;;;;;;7.87;3.63;;;29.80;47.30;;;;;;4999737;28;89903;-51
2023/06/29 10:13:43;;;;;;;7.73;4.10;;;29.80;47.30;;;;;;5000428;28;87174;-51
2023/06/29 10:16:11;;;;;;;5.70;3.63;;;29.80;47.30;;;;;;5003273;28;87782;-51
2023/06/29 10:18:41;;;;;;;7.97;3.70;;;29.80;47.20;;;;;;5003007;28;87670;-51
2023/06/29 10:21:11;;;;;;;7.50;4.33;;;29.90;47.30;;;;;;5003225;28;88523;-50
2023/06/29 10:23:39;;;;;;;9.47;3.60;;;29.80;47.20;;;;;;5002656;28;87946;-50
2023/06/29 10:26:07;;;;;;;6.80;3.70;;;29.80;47.20;;;;;;5003164;28;87803;-51
2023/06/29 10:28:35;;;;;;;5.83;3.30;;;29.80;47.20;;;;;;5002681;28;87758;-50
2023/06/29 10:31:03;;;;;;;6.87;3.43;;;29.80;47.20;;;;;;5002916;28;87542;-50
2023/06/29 10:33:31;;;;;;;5.77;3.00;;;29.80;47.10;;;;;;5002816;28;89170;-51
2023/06/29 10:36:01;;;;;;;5.10;3.40;;;29.80;47.10;;;;;;5002934;28;87969;-51
2023/06/29 10:38:33;;;;;;;3.77;2.53;;;29.80;47.10;;;;;;5002804;28;87621;-51
2023/06/29 10:41:01;;;;;;;7.03;3.87;;;29.80;47.20;;;;;;5002780;28;89718;-51
2023/06/29 10:43:29;;;;;;;6.30;3.00;;;29.80;47.10;;;;;;5002670;28;87373;-51
2023/06/29 10:45:57;;;;;;;6.37;3.00;;;29.90;47.20;;;;;;5002851;28;87935;-51
2023/06/29 10:48:25;;;;;;;4.57;3.03;;;29.90;47.20;;;;;;5002613;28;87801;-51
2023/06/29 10:51:14;;;;;;;4.53;2.70;;;29.80;47.00;;;;;;5002172;28;87518;-50
2023/06/29 10:53:44;;;;;;;4.77;2.87;;;29.80;47.00;;;;;;5002193;28;89041;-51
2023/06/29 10:56:29;;;;;;;5.73;3.33;;;29.80;47.00;;;;;;5002289;28;89880;-50
2023/06/29 10:58:57;;;;;;;5.87;3.00;;;29.80;47.00;;;;;;5002682;28;87574;-51
2023/06/29 11:01:25;;;;;;;4.87;3.40;;;29.90;47.80;;;;;;5002307;28;88702;-51
2023/06/29 11:03:53;;;;;;;5.20;3.27;;;29.80;47.00;;;;;;5002443;28;88024;-51
2023/06/29 11:06:21;;;;;;;6.53;3.10;;;29.90;47.10;;;;;;5002138;28;87393;-50
2023/06/29 11:09:13;;;;;;;6.30;3.17;;;29.90;47.10;;;;;;4984034;28;88356;-51
2023/06/29 11:11:41;;;;;;;4.23;2.60;;;29.80;46.90;;;;;;4982684;28;89730;-50
2023/06/29 11:14:11;;;;;;;5.27;2.57;;;29.80;46.90;;;;;;4982388;28;88211;-51
2023/06/29 11:16:40;;;;;;;2.90;2.50;;;29.80;46.90;;;;;;4982283;28;87940;-50
2023/06/29 11:19:08;;;;;;;5.80;2.83;;;29.80;47.00;;;;;;4981513;28;87867;-50
2023/06/29 11:21:40;;;;;;;6.03;3.17;;;29.80;46.90;;;;;;4981848;28;88556;-51
2023/06/29 11:24:09;;;;;;;5.13;3.57;;;29.80;46.90;;;;;;4981642;28;87898;-51
2023/06/29 11:26:39;;;;;;;5.30;2.60;;;29.90;47.00;;;;;;4982070;28;87841;-51
2023/06/29 11:29:08;;;;;;;4.40;2.73;;;29.80;46.90;;;;;;4982249;28;87698;-51
2023/06/29 11:31:36;;;;;;;5.13;3.37;;;30.10;47.10;;;;;;4981824;28;88535;-50
2023/06/29 11:34:04;;;;;;;5.03;3.00;;;29.80;47.60;;;;;;4981920;28;87434;-50
2023/06/29 11:36:36;;;;;;;7.37;3.27;;;29.80;46.90;;;;;;4981982;28;87390;-51
2023/06/29 11:39:07;;;;;;;5.20;2.87;;;29.80;46.90;;;;;;4982192;28;87210;-50
2023/06/29 11:41:36;;;;;;;5.57;3.40;;;29.90;47.00;;;;;;4981977;28;88955;-50
2023/06/29 11:44:05;;;;;;;5.73;3.07;;;29.80;46.90;;;;;;4981065;28;90208;-50
2023/06/29 11:46:35;;;;;;;5.90;3.13;;;29.80;46.90;;;;;;4981863;28;88860;-50
2023/06/29 11:49:04;;;;;;;7.57;3.17;;;29.80;46.90;;;;;;4981886;28;87657;-50
2023/06/29 11:51:33;;;;;;;4.93;2.67;;;29.90;47.00;;;;;;4981685;28;89726;-50
2023/06/29 11:54:01;;;;;;;7.90;3.37;;;29.80;46.80;;;;;;4981723;28;88205;-51
2023/06/29 11:56:37;;;;;;;6.70;3.40;;;29.90;46.90;;;;;;4981583;28;87487;-51
2023/06/29 11:59:10;;;;;;;4.90;2.70;;;29.90;46.90;;;;;;4981821;28;87353;-51
2023/06/29 12:01:38;;;;;;;5.00;3.00;;;29.90;46.90;;;;;;4981787;28;89703;-51
2023/06/29 12:04:06;;;;;;;7.57;2.47;;;29.90;46.80;;;;;;4981470;28;89470;-50
2023/06/29 12:06:35;;;;;;;4.03;2.60;;;29.90;46.80;;;;;;4981317;28;87909;-50
2023/06/29 12:09:10;;;;;;;5.83;3.30;;;29.90;46.90;;;;;;4980835;28;87849;-51
2023/06/29 12:11:39;;;;;;;6.53;3.27;;;29.90;46.90;;;;;;4981426;28;88498;-50
2023/06/29 12:14:10;;;;;;;6.03;2.80;;;29.90;46.90;;;;;;4981242;28;88302;-50
2023/06/29 12:16:39;;;;;;;5.03;3.33;;;29.90;46.90;;;;;;4981214;28;88808;-50
2023/06/29 12:19:11;;;;;;;5.67;3.57;;;29.90;46.90;;;;;;4980620;28;87426;-51
2023/06/29 12:21:39;;;;;;;5.23;2.90;;;29.90;46.80;;;;;;4980771;28;89599;-50
2023/06/29 12:24:08;;;;;;;5.90;3.13;;;29.90;46.80;;;;;;4981198;28;89231;-50
2023/06/29 12:26:36;;;;;;;4.33;2.83;;;29.90;46.80;;;;;;4981526;28;87891;-51
2023/06/29 12:29:04;;;;;;;5.50;3.10;;;29.90;46.80;;;;;;4981668;28;87150;-51
2023/06/29 12:31:34;;;;;;;7.43;3.40;;;30.00;46.80;;;;;;4981132;28;89926;-50
2023/06/29 12:34:02;;;;;;;5.73;3.03;;;30.00;46.80;;;;;;4980340;28;88994;-51
2023/06/29 12:36:30;;;;;;;5.90;2.97;;;29.90;46.70;;;;;;4980280;28;89950;-50
2023/06/29 12:38:58;;;;;;;5.07;2.97;;;29.90;46.70;;;;;;4981153;28;87655;-51
2023/06/29 12:41:26;;;;;;;5.33;2.77;;;29.90;46.70;;;;;;4981003;28;88611;-51
2023/06/29 12:43:54;;;;;;;5.47;3.20;;;29.90;46.60;;;;;;4981036;28;89712;-50
2023/06/29 12:46:23;;;;;;;5.20;2.97;;;30.00;46.70;;;;;;4981055;28;88997;-51
2023/06/29 12:48:52;;;;;;;5.80;3.27;;;29.90;46.60;;;;;;4980759;28;87546;-51
2023/06/29 12:51:20;;;;;;;5.50;2.90;;;30.00;46.60;;;;;;4980977;28;88568;-50
2023/06/29 12:53:48;;;;;;;6.53;3.00;;;30.00;46.60;;;;;;4980915;28;88241;-50